Time;durP1;ratioP1;P1;durP2;ratioP2;P2;SDS_P1;SDS_P2;PMS_P1;PMS_P2;Temp;Humidity;BMP_temperature;BMP_pressure;BME280_temperature;BME280_humidity;BME280_pressure;Samples;Min_cycle;Max_cycle;Signal;HPM_P1;HPM_P2
2022/09/11 00:01:14;;;;;;;9.60;5.75;;;;;;;14.62;76.45;98688.75;1791053;80;21025;-41
2022/09/11 00:03:42;;;;;;;9.73;5.92;;;;;;;14.65;76.37;98685.20;1791284;80;21339;-41
2022/09/11 00:06:12;;;;;;;10.10;6.30;;;;;;;14.63;76.50;98674.69;1790886;80;21467;-41
2022/09/11 00:08:41;;;;;;;8.93;5.33;;;;;;;14.61;76.60;98683.10;1791171;80;21500;-41
2022/09/11 00:11:17;;;;;;;6.45;5.40;;;;;;;14.61;76.67;98692.06;1790935;80;21650;-41
2022/09/11 00:13:47;;;;;;;9.05;5.42;;;;;;;14.66;76.73;98684.03;1791403;80;21045;-41
2022/09/11 00:16:25;;;;;;;7.12;5.83;;;;;;;14.67;76.86;98680.11;1791096;79;21923;-41
2022/09/11 00:18:53;;;;;;;7.20;5.67;;;;;;;14.66;77.05;98682.67;1790902;80;21068;-41
2022/09/11 00:21:19;;;;;;;7.75;5.65;;;;;;;14.62;77.18;98682.68;1791047;80;21081;-41
2022/09/11 00:23:49;;;;;;;9.60;6.05;;;;;;;14.67;77.35;98674.65;1791287;80;21059;-41
2022/09/11 00:26:17;;;;;;;8.10;5.70;;;;;;;14.73;77.26;98675.19;1791407;80;21677;-41
2022/09/11 00:28:45;;;;;;;8.60;6.55;;;;;;;14.77;77.42;98672.42;1791411;80;21095;-41
2022/09/11 00:31:18;;;;;;;8.23;5.70;;;;;;;14.80;77.59;98659.35;1791197;80;20922;-41
2022/09/11 00:33:44;;;;;;;7.45;5.40;;;;;;;14.84;77.47;98665.55;1791320;80;20914;-41
2022/09/11 00:36:14;;;;;;;10.13;5.78;;;;;;;14.89;77.45;98665.69;1791304;79;21068;-41
2022/09/11 00:38:41;;;;;;;7.40;5.33;;;;;;;14.93;77.49;98665.06;1791329;80;21033;-41
2022/09/11 00:41:13;;;;;;;8.60;5.40;;;;;;;14.92;77.67;98660.78;1791047;80;21204;-41
2022/09/11 00:43:54;;;;;;;8.58;5.40;;;;;;;14.90;77.92;98656.34;1790889;79;21484;-41
2022/09/11 00:46:47;;;;;;;7.75;4.97;;;;;;;14.92;78.11;98651.23;1754771;79;21534;-41
2022/09/11 00:49:25;;;;;;;9.83;4.97;;;;;;;14.97;78.19;98657.02;1790867;79;21547;-41
2022/09/11 00:51:56;;;;;;;8.28;5.10;;;;;;;14.97;78.65;98652.16;1790878;80;21041;-41
2022/09/11 00:54:27;;;;;;;6.83;5.50;;;;;;;14.96;78.92;98652.73;1790567;79;21217;-41
2022/09/11 00:56:54;;;;;;;6.80;4.85;;;;;;;14.99;79.16;98654.68;1790976;80;20927;-41
2022/09/11 00:59:24;;;;;;;9.10;5.20;;;;;;;15.04;79.27;98647.41;1791008;80;21037;-41
2022/09/11 01:01:50;;;;;;;5.90;5.10;;;;;;;15.12;79.36;98646.73;1790994;80;20997;-41
2022/09/11 01:04:17;;;;;;;8.48;5.30;;;;;;;15.17;79.57;98655.26;1791060;80;21069;-41
2022/09/11 01:06:45;;;;;;;6.72;4.97;;;;;;;15.21;79.57;98657.35;1790948;80;21142;-41
2022/09/11 01:09:13;;;;;;;7.33;4.62;;;;;;;15.23;79.76;98655.00;1786302;80;21626;-42
2022/09/11 01:11:52;;;;;;;5.70;4.58;;;;;;;15.31;79.97;98661.73;1790856;80;20914;-41
2022/09/11 01:14:47;;;;;;;6.40;4.90;;;;;;;15.34;80.17;98668.55;1791315;79;20966;-41
2022/09/11 01:17:26;;;;;;;5.40;4.03;;;;;;;15.32;80.40;98666.02;1791018;80;21488;-41
2022/09/11 01:20:13;;;;;;;6.17;4.42;;;;;;;15.37;80.61;98660.89;1791082;80;21221;-41
2022/09/11 01:23:03;;;;;;;4.92;4.42;;;;;;;15.43;80.58;98661.22;1790839;80;20918;-41
2022/09/11 01:26:08;;;;;;;5.40;4.78;;;;;;;15.47;80.75;98659.22;1763309;79;21661;-41
2022/09/11 01:28:46;;;;;;;5.58;4.00;;;;;;;15.49;81.01;98660.95;1790963;79;20930;-41
2022/09/11 01:31:15;;;;;;;5.75;4.33;;;;;;;15.51;81.24;98659.97;1790983;79;21073;-41
2022/09/11 01:33:46;;;;;;;6.57;4.60;;;;;;;15.58;81.19;98666.14;1791689;80;21815;-41
2022/09/11 01:36:30;;;;;;;5.70;4.97;;;;;;;15.61;81.23;98679.56;1791113;79;20993;-41
2022/09/11 01:38:59;;;;;;;5.25;3.90;;;;;;;15.57;81.66;98687.03;1791051;79;20964;-41
2022/09/11 01:41:39;;;;;;;4.12;3.20;;;;;;;14.27;82.42;98524.22;1791269;80;21050;-41
2022/09/11 01:44:12;;;;;;;3.08;2.77;;;;;;;15.49;81.37;98711.50;1791409;79;21013;-41
2022/09/11 01:46:45;;;;;;;3.37;2.83;;;;;;;15.40;79.54;98716.64;1791346;80;21220;-41
2022/09/11 01:49:17;;;;;;;3.15;2.85;;;;;;;15.25;78.78;98713.28;1791267;80;21642;-41
2022/09/11 01:51:45;;;;;;;2.80;2.55;;;;;;;15.15;78.60;98712.83;1791141;79;20942;-41
2022/09/11 01:54:16;;;;;;;3.00;2.70;;;;;;;15.11;78.46;98716.16;1791144;80;21010;-41
2022/09/11 01:56:52;;;;;;;3.67;3.30;;;;;;;15.06;78.26;98717.38;1786010;80;20987;-41
2022/09/11 01:59:26;;;;;;;4.12;2.90;;;;;;;14.97;78.40;98720.39;1791295;80;21093;-41
2022/09/11 02:01:56;;;;;;;4.45;2.98;;;;;;;14.85;78.62;98722.27;1790792;79;21014;-41
2022/09/11 02:04:28;;;;;;;4.37;2.37;;;;;;;14.77;78.84;98717.44;1791071;80;21205;-41
2022/09/11 02:07:18;;;;;;;4.65;2.60;;;;;;;14.73;78.70;98712.61;1790900;80;20962;-41
2022/09/11 02:09:55;;;;;;;4.22;2.40;;;;;;;14.66;78.77;98707.22;1790701;79;21018;-41
2022/09/11 02:12:26;;;;;;;2.65;2.33;;;;;;;14.50;78.79;98717.86;1790997;80;21208;-41
2022/09/11 02:14:53;;;;;;;2.77;2.27;;;;;;;14.39;79.05;98726.69;1790913;80;20961;-41
2022/09/11 02:17:42;;;;;;;3.12;2.50;;;;;;;14.34;79.03;98723.19;1790849;80;21001;-41
2022/09/11 02:20:09;;;;;;;2.70;2.35;;;;;;;14.28;79.22;98730.23;1790885;80;20997;-41
2022/09/11 02:22:36;;;;;;;4.22;2.50;;;;;;;14.17;79.45;98730.13;1791047;80;20982;-41
2022/09/11 02:25:05;;;;;;;3.52;2.02;;;;;;;14.14;79.53;98728.95;1790794;80;21234;-41
2022/09/11 02:27:32;;;;;;;2.83;2.08;;;;;;;14.13;79.38;98726.06;1791020;80;20997;-41
2022/09/11 02:29:59;;;;;;;4.47;2.50;;;;;;;14.12;79.25;98733.27;1790987;80;21080;-41
2022/09/11 02:32:27;;;;;;;3.52;2.27;;;;;;;14.05;79.47;98738.16;1769141;80;21293;-41
2022/09/11 02:34:54;;;;;;;2.45;2.00;;;;;;;14.03;79.55;98741.11;1790897;80;21009;-41
2022/09/11 02:37:55;;;;;;;2.83;1.92;;;;;;;14.01;79.50;98744.22;1791090;79;21135;-41
2022/09/11 02:40:30;;;;;;;2.50;1.85;;;;;;;13.99;79.46;98740.35;1768970;80;21039;-41
2022/09/11 02:43:33;;;;;;;1.75;1.30;;;;;;;13.88;79.80;98749.34;1790980;79;20958;-40
2022/09/11 02:46:42;;;;;;;1.30;1.20;;;;;;;13.81;79.20;98744.50;1769535;79;21021;-41
2022/09/11 02:49:21;;;;;;;1.17;1.02;;;;;;;13.72;78.77;98752.31;1791091;79;21021;-40
2022/09/11 02:52:03;;;;;;;5.03;1.07;;;;;;;13.58;78.42;98758.59;1791236;80;23187;-40
2022/09/11 02:54:54;;;;;;;2.08;1.20;;;;;;;13.48;78.35;98762.12;1790924;80;21591;-40
2022/09/11 02:57:51;;;;;;;0.90;0.75;;;;;;;13.44;78.72;98766.80;1791416;79;20941;-40
2022/09/11 03:00:18;;;;;;;0.60;0.60;;;;;;;13.36;78.48;98761.94;1762373;79;20958;-40
2022/09/11 03:02:46;;;;;;;0.80;0.60;;;;;;;13.28;78.69;98770.52;1791288;80;21068;-40
2022/09/11 03:05:12;;;;;;;1.77;0.88;;;;;;;13.24;78.51;98770.53;1732036;81;21146;-40
2022/09/11 03:07:41;;;;;;;2.12;0.70;;;;;;;13.26;78.46;98779.09;1743067;82;21033;-40
2022/09/11 03:10:10;;;;;;;2.95;0.70;;;;;;;13.26;78.46;98781.03;1742911;82;20929;-40
2022/09/11 03:12:38;;;;;;;0.60;0.50;;;;;;;13.20;78.47;98786.67;1742838;82;21006;-40
2022/09/11 03:15:11;;;;;;;0.90;0.60;;;;;;;13.16;78.50;98786.69;1742748;82;21025;-40
2022/09/11 03:17:37;;;;;;;1.70;0.65;;;;;;;13.14;78.31;98793.67;1743165;82;21098;-40
2022/09/11 03:20:07;;;;;;;1.65;0.60;;;;;;;13.11;78.33;98782.19;1742535;82;20950;-40
2022/09/11 03:22:33;;;;;;;1.37;0.70;;;;;;;13.06;78.50;98786.08;1743107;82;20977;-40
2022/09/11 03:25:00;;;;;;;1.67;0.68;;;;;;;13.04;78.71;98786.45;1742974;81;21461;-40
2022/09/11 03:27:28;;;;;;;0.82;0.57;;;;;;;13.06;78.78;98791.52;1742716;81;21029;-40
2022/09/11 03:29:55;;;;;;;0.60;0.60;;;;;;;13.06;78.69;98793.66;1742788;81;21224;-40
2022/09/11 03:32:22;;;;;;;2.75;0.95;;;;;;;13.06;78.89;98795.59;1742537;82;20977;-40
2022/09/11 03:34:50;;;;;;;0.55;0.50;;;;;;;13.03;78.65;98790.91;1742755;81;21527;-40
2022/09/11 03:37:17;;;;;;;0.70;0.40;;;;;;;13.03;78.74;98792.28;1746629;81;21041;-40
2022/09/11 03:39:47;;;;;;;0.93;0.80;;;;;;;13.08;78.74;98795.39;1751834;81;21076;-40
2022/09/11 03:42:13;;;;;;;0.75;0.70;;;;;;;13.08;78.65;98794.61;1752171;81;21202;-40
2022/09/11 03:44:41;;;;;;;1.05;0.50;;;;;;;13.05;78.76;98798.91;1751583;81;21520;-40
2022/09/11 03:47:10;;;;;;;1.25;0.80;;;;;;;13.08;78.83;98799.47;1751964;81;21016;-40
2022/09/11 03:49:38;;;;;;;0.57;0.57;;;;;;;13.17;78.70;98796.38;1752000;81;21023;-40
2022/09/11 03:52:05;;;;;;;1.35;0.70;;;;;;;13.25;78.40;98789.00;1751926;81;21869;-41
2022/09/11 03:54:34;;;;;;;0.88;0.50;;;;;;;13.26;78.07;98804.95;1751756;81;21653;-40
2022/09/11 03:57:01;;;;;;;5.92;0.80;;;;;;;13.25;77.89;98801.25;1742549;81;20965;-40
2022/09/11 03:59:29;;;;;;;2.20;0.60;;;;;;;13.21;77.42;98806.70;1741797;82;21023;-40
2022/09/11 04:01:55;;;;;;;0.80;0.80;;;;;;;13.25;77.42;98806.70;1741866;82;21039;-41
2022/09/11 04:04:23;;;;;;;0.80;0.80;;;;;;;13.29;77.37;98810.19;1741917;82;21110;-40
2022/09/11 04:06:50;;;;;;;1.27;0.60;;;;;;;13.27;77.21;98813.29;1742060;82;21132;-40
2022/09/11 04:09:18;;;;;;;0.57;0.30;;;;;;;13.24;76.94;98807.86;1742007;81;21023;-41
2022/09/11 04:11:48;;;;;;;1.10;0.60;;;;;;;13.21;76.95;98803.20;1739137;82;20928;-40
2022/09/11 04:14:18;;;;;;;2.50;0.70;;;;;;;13.26;76.49;98806.89;1738825;82;20959;-41
2022/09/11 04:16:46;;;;;;;1.00;0.60;;;;;;;13.28;76.63;98801.23;1739493;82;21019;-40
2022/09/11 04:19:13;;;;;;;0.50;0.50;;;;;;;13.30;76.78;98800.28;1739093;82;23145;-40
2022/09/11 04:21:41;;;;;;;1.22;0.60;;;;;;;13.27;76.57;98796.17;1719963;82;21014;-41
2022/09/11 04:24:09;;;;;;;0.70;0.70;;;;;;;13.29;76.53;98801.44;1739181;82;20964;-41
2022/09/11 04:26:37;;;;;;;1.25;0.62;;;;;;;13.33;76.32;98801.43;1739227;82;21538;-40
2022/09/11 04:29:08;;;;;;;0.80;0.60;;;;;;;13.35;75.83;98802.61;1738810;82;21019;-41
2022/09/11 04:31:35;;;;;;;1.22;0.70;;;;;;;13.29;75.54;98804.16;1738916;82;23147;-40
2022/09/11 04:34:02;;;;;;;1.22;0.98;;;;;;;13.22;75.77;98804.16;1739001;82;21529;-40
2022/09/11 04:36:30;;;;;;;0.65;0.65;;;;;;;13.23;76.03;98810.38;1739017;82;21320;-40
2022/09/11 04:38:59;;;;;;;3.12;0.80;;;;;;;13.27;75.90;98805.13;1713281;82;21048;-41
2022/09/11 04:41:26;;;;;;;0.80;0.70;;;;;;;13.32;76.06;98807.45;1713360;82;21539;-40
2022/09/11 04:43:56;;;;;;;0.90;0.80;;;;;;;13.31;76.04;98800.45;1713394;82;21084;-40
2022/09/11 04:46:24;;;;;;;1.50;1.00;;;;;;;13.31;76.08;98806.50;1700592;83;20977;-40
2022/09/11 04:48:55;;;;;;;3.90;0.90;;;;;;;13.28;75.95;98804.55;1713120;83;21028;-40
2022/09/11 04:51:29;;;;;;;3.35;0.57;;;;;;;13.26;76.12;98804.95;1713182;82;21025;-40
2022/09/11 04:53:57;;;;;;;0.75;0.70;;;;;;;13.30;75.91;98812.53;1713038;83;21547;-40
2022/09/11 04:56:30;;;;;;;1.17;0.72;;;;;;;13.34;75.87;98826.13;1713344;83;21665;-40
2022/09/11 04:59:09;;;;;;;1.25;0.70;;;;;;;13.32;75.90;98822.42;1712852;82;20992;-40
2022/09/11 05:01:36;;;;;;;1.15;0.50;;;;;;;13.25;75.59;98825.17;1713464;83;21073;-40
2022/09/11 05:04:03;;;;;;;0.65;0.60;;;;;;;13.26;75.46;98828.67;1719752;82;21007;-40
2022/09/11 05:06:30;;;;;;;1.05;0.70;;;;;;;13.30;75.30;98822.64;1732390;81;21041;-41
2022/09/11 05:09:04;;;;;;;1.27;0.72;;;;;;;13.32;75.19;98819.70;1732160;82;21050;-40
2022/09/11 05:11:33;;;;;;;3.50;0.95;;;;;;;13.31;75.00;98818.75;1732536;82;20934;-40
2022/09/11 05:14:00;;;;;;;0.98;0.75;;;;;;;13.31;75.00;98821.48;1732259;82;21033;-40
2022/09/11 05:16:29;;;;;;;1.45;0.60;;;;;;;13.36;74.54;98812.91;1715930;82;21543;-40
2022/09/11 05:18:58;;;;;;;1.42;0.70;;;;;;;13.44;74.30;98805.70;1736840;82;21113;-41
2022/09/11 05:21:26;;;;;;;1.57;0.70;;;;;;;13.52;73.62;98805.67;1737231;82;21296;-40
2022/09/11 05:23:55;;;;;;;1.10;0.95;;;;;;;13.51;73.18;98807.62;1737217;82;21501;-40
2022/09/11 05:26:27;;;;;;;0.88;0.88;;;;;;;13.51;73.37;98812.31;1729627;83;21088;-40
2022/09/11 05:28:59;;;;;;;1.72;1.00;;;;;;;13.52;73.40;98807.03;1729709;82;21058;-40
2022/09/11 05:31:25;;;;;;;1.92;0.90;;;;;;;13.58;73.41;98810.92;1729572;82;21539;-40
2022/09/11 05:33:59;;;;;;;2.08;0.98;;;;;;;13.70;72.88;98816.72;1724737;82;21121;-41
2022/09/11 05:36:26;;;;;;;3.90;1.00;;;;;;;13.78;72.94;98812.05;1729399;83;20966;-40
2022/09/11 05:38:53;;;;;;;1.52;0.93;;;;;;;13.83;73.30;98813.00;1744281;82;20993;-40
2022/09/11 05:41:20;;;;;;;1.87;0.93;;;;;;;13.90;72.98;98811.02;1745529;82;21545;-40
2022/09/11 05:43:48;;;;;;;1.25;0.85;;;;;;;13.94;72.56;98816.48;1751779;81;21080;-40
2022/09/11 05:46:16;;;;;;;2.65;0.80;;;;;;;13.95;71.86;98818.02;1751595;81;21143;-40
2022/09/11 05:48:45;;;;;;;0.70;0.70;;;;;;;13.98;71.94;98815.10;1751715;81;21489;-40
2022/09/11 05:51:14;;;;;;;1.35;0.72;;;;;;;14.01;71.69;98819.16;1751660;81;20929;-40
2022/09/11 05:53:42;;;;;;;2.25;0.80;;;;;;;14.00;71.95;98821.70;1752136;81;21060;-40
2022/09/11 05:56:17;;;;;;;1.22;0.90;;;;;;;13.99;71.52;98822.86;1751636;81;21330;-41
2022/09/11 05:58:46;;;;;;;1.22;0.80;;;;;;;13.96;71.65;98825.02;1752021;81;21204;-40
2022/09/11 06:01:16;;;;;;;1.42;1.07;;;;;;;13.97;71.92;98823.86;1751752;81;21096;-40
2022/09/11 06:03:43;;;;;;;1.77;1.10;;;;;;;14.00;71.66;98818.97;1752310;81;21004;-40
2022/09/11 06:06:11;;;;;;;2.02;1.00;;;;;;;13.98;70.93;98813.73;1751492;81;21083;-40
2022/09/11 06:08:42;;;;;;;1.10;1.00;;;;;;;13.92;70.60;98813.36;1751971;81;21547;-42
2022/09/11 06:11:08;;;;;;;;;;;;;;;13.88;70.45;98811.23;1754231;81;21210;-40
2022/09/11 06:13:38;;;;;;;1.82;1.02;;;;;;;13.83;70.29;98813.78;1751756;81;20123;-40
2022/09/11 06:16:16;;;;;;;1.93;1.40;;;;;;;13.80;71.03;98817.86;1751944;81;21078;-40
2022/09/11 06:18:50;;;;;;;1.47;0.85;;;;;;;13.81;70.93;98818.84;1752022;81;21273;-40
2022/09/11 06:21:19;;;;;;;;;;;;;;;13.77;71.31;98815.94;1753710;81;21048;-41
2022/09/11 06:23:56;;;;;;;1.35;1.25;;;;;;;13.74;71.37;98820.81;1750670;81;21323;-40
2022/09/11 06:26:25;;;;;;;2.40;1.37;;;;;;;13.63;71.78;98820.84;1751706;81;21298;-40
2022/09/11 06:28:53;;;;;;;2.90;1.60;;;;;;;13.67;71.70;98819.45;1751877;81;21037;-40
2022/09/11 06:31:24;;;;;;;3.05;2.30;;;;;;;13.72;71.42;98822.56;1751775;81;21069;-40
2022/09/11 06:33:52;;;;;;;2.15;1.95;;;;;;;13.76;71.47;98830.72;1751849;81;21539;-40
2022/09/11 06:36:28;;;;;;;5.08;2.20;;;;;;;13.77;71.66;98828.97;1752053;81;21471;-40
2022/09/11 06:38:57;;;;;;;1.95;1.40;;;;;;;13.77;71.26;98820.80;1749259;81;21031;-40
2022/09/11 06:41:26;;;;;;;2.52;1.70;;;;;;;13.84;71.48;98820.02;1748578;82;20988;-40
2022/09/11 06:43:55;;;;;;;2.33;2.12;;;;;;;13.96;71.65;98825.02;1747938;82;21585;-40
2022/09/11 06:46:23;;;;;;;2.30;2.10;;;;;;;14.08;71.37;98824.60;1748216;82;20997;-40
2022/09/11 06:48:52;;;;;;;2.45;2.25;;;;;;;14.10;70.51;98827.70;1748126;82;21161;-40
2022/09/11 06:52:08;;;;;;;2.50;2.30;;;;;;;14.09;69.68;98822.05;1836064;78;22570;-40
2022/09/11 06:54:35;;;;;;;2.55;2.02;;;;;;;13.98;70.09;98824.05;1805812;79;20994;-40
2022/09/11 06:57:04;;;;;;;1.87;1.77;;;;;;;13.99;70.16;98826.95;1805686;79;23119;-40
2022/09/11 06:59:31;;;;;;;1.95;1.50;;;;;;;14.08;70.19;98829.27;1805643;79;20947;-41
2022/09/11 07:01:59;;;;;;;1.77;1.67;;;;;;;14.13;69.45;98825.56;1805645;79;20963;-40
2022/09/11 07:04:27;;;;;;;2.25;2.05;;;;;;;14.14;69.39;98828.45;1806074;79;21273;-40
2022/09/11 07:06:54;;;;;;;2.42;2.22;;;;;;;14.16;69.54;98837.02;1805764;79;20966;-40
2022/09/11 07:09:22;;;;;;;2.00;1.50;;;;;;;14.18;69.34;98831.97;1805689;79;21172;-40
2022/09/11 07:11:52;;;;;;;2.27;1.62;;;;;;;14.23;68.80;98835.62;1805702;79;20962;-40
2022/09/11 07:14:20;;;;;;;2.05;1.85;;;;;;;14.32;68.99;98834.63;1806209;79;21002;-40
2022/09/11 07:16:54;;;;;;;4.33;1.90;;;;;;;14.45;69.13;98837.70;1805808;79;21058;-41
2022/09/11 07:19:20;;;;;;;2.42;2.22;;;;;;;14.52;68.70;98843.72;1805488;79;21028;-40
2022/09/11 07:21:46;;;;;;;2.30;2.10;;;;;;;14.60;68.66;98845.22;1805789;79;21222;-40
2022/09/11 07:24:13;;;;;;;2.92;2.20;;;;;;;14.65;68.64;98843.44;1805675;79;20946;-40
2022/09/11 07:26:41;;;;;;;2.08;1.87;;;;;;;14.72;68.24;98840.66;1805786;79;21076;-41
2022/09/11 07:29:11;;;;;;;2.72;2.25;;;;;;;14.78;68.06;98843.16;1805698;79;21513;-40
2022/09/11 07:31:41;;;;;;;2.10;1.90;;;;;;;14.87;67.26;98848.16;1805810;79;20984;-40
2022/09/11 07:34:09;;;;;;;2.37;1.90;;;;;;;14.94;67.32;98858.46;1806014;79;21881;-41
2022/09/11 07:36:37;;;;;;;2.83;2.00;;;;;;;14.95;66.92;98851.05;1805876;79;20972;-41
2022/09/11 07:39:06;;;;;;;3.02;2.15;;;;;;;14.97;66.77;98853.55;1805945;79;21023;-41
2022/09/11 07:41:41;;;;;;;2.83;2.45;;;;;;;14.98;66.73;98853.75;1804245;79;21603;-40
2022/09/11 07:44:10;;;;;;;2.47;2.27;;;;;;;14.96;66.25;98852.00;1805380;79;21077;-41
2022/09/11 07:46:40;;;;;;;2.08;1.65;;;;;;;14.92;66.51;98851.83;1806102;79;21222;-41
2022/09/11 07:49:08;;;;;;;1.57;1.47;;;;;;;14.91;66.87;98844.23;1805988;79;20987;-40
2022/09/11 07:51:37;;;;;;;1.80;1.70;;;;;;;15.00;66.30;98845.17;1800700;79;21009;-40
2022/09/11 07:54:05;;;;;;;2.50;1.87;;;;;;;15.01;65.70;98850.20;1797545;79;21006;-40
2022/09/11 07:56:33;;;;;;;2.20;2.00;;;;;;;15.00;66.53;98849.27;1797635;79;21086;-40
2022/09/11 07:59:01;;;;;;;2.40;2.20;;;;;;;15.00;66.70;98847.90;1797445;79;21521;-40
2022/09/11 08:01:31;;;;;;;2.30;2.10;;;;;;;15.02;66.79;98846.30;1797420;79;21576;-41
2022/09/11 08:04:00;;;;;;;2.40;2.17;;;;;;;15.05;67.04;98842.02;1796931;79;21027;-40
2022/09/11 08:06:30;;;;;;;3.35;2.05;;;;;;;15.11;67.04;98840.38;1797455;79;21063;-41
2022/09/11 08:09:01;;;;;;;2.90;2.50;;;;;;;15.19;66.45;98841.91;1796853;79;21014;-40
2022/09/11 08:11:30;;;;;;;3.05;2.70;;;;;;;15.22;66.66;98839.13;1766265;79;21020;-41
2022/09/11 08:13:58;;;;;;;4.22;3.20;;;;;;;15.29;66.75;98837.53;1796877;79;21066;-41
2022/09/11 08:16:26;;;;;;;4.83;3.58;;;;;;;15.32;66.63;98832.61;1796885;79;21039;-40
2022/09/11 08:18:55;;;;;;;3.83;3.45;;;;;;;15.32;66.24;98835.34;1797084;79;21530;-41
2022/09/11 08:21:23;;;;;;;3.72;2.90;;;;;;;15.31;66.25;98839.25;1797065;79;21023;-40
2022/09/11 08:23:50;;;;;;;5.92;2.87;;;;;;;15.36;66.96;98844.28;1796849;79;21787;-41
2022/09/11 08:26:21;;;;;;;4.70;3.50;;;;;;;15.49;66.93;98847.47;1796859;79;21451;-40
2022/09/11 08:28:50;;;;;;;4.62;4.20;;;;;;;15.63;66.82;98851.49;1797016;79;21011;-41
2022/09/11 08:31:19;;;;;;;4.50;4.10;;;;;;;15.75;66.59;98850.78;1796980;79;21764;-40
2022/09/11 08:33:48;;;;;;;4.47;4.05;;;;;;;15.79;65.86;98847.41;1797595;79;21490;-41
2022/09/11 08:36:15;;;;;;;5.85;4.75;;;;;;;15.80;65.81;98852.48;1797086;79;21238;-41
2022/09/11 08:38:43;;;;;;;5.05;4.58;;;;;;;15.85;65.82;98860.23;1797059;79;21530;-40
2022/09/11 08:41:40;;;;;;;5.20;4.70;;;;;;;15.86;64.82;98863.16;1765785;79;21055;-40
2022/09/11 08:44:24;;;;;;;4.42;3.75;;;;;;;15.87;65.24;98858.48;1797107;79;21006;-40
2022/09/11 08:47:00;;;;;;;4.72;4.25;;;;;;;15.95;64.88;98850.37;1797056;79;21019;-40
2022/09/11 08:49:37;;;;;;;4.95;4.45;;;;;;;16.04;65.01;98851.44;1797111;79;21268;-41
2022/09/11 08:52:08;;;;;;;4.87;4.47;;;;;;;16.13;64.87;98844.69;1796595;79;21016;-41
2022/09/11 08:54:37;;;;;;;5.12;4.67;;;;;;;16.20;63.39;98851.46;1796668;79;21054;-40
2022/09/11 08:57:22;;;;;;;5.37;4.80;;;;;;;16.21;62.53;98845.59;1797193;79;21002;-40
2022/09/11 09:00:17;;;;;;;5.97;5.22;;;;;;;16.19;62.15;98840.33;1796756;79;21004;-40
2022/09/11 09:03:38;;;;;;;5.45;4.95;;;;;;;16.11;63.00;98840.24;1796478;79;21099;-40
2022/09/11 09:06:32;;;;;;;5.78;5.17;;;;;;;16.09;63.10;98848.25;1796901;79;20998;-40
2022/09/11 09:09:17;;;;;;;4.28;3.87;;;;;;;16.02;63.13;98843.47;1765830;79;20983;-41
2022/09/11 09:12:14;;;;;;;4.58;4.17;;;;;;;16.05;63.48;98846.75;1796831;79;21086;-40
2022/09/11 09:15:09;;;;;;;5.05;4.53;;;;;;;16.08;63.61;98848.06;1796769;79;21438;-41
2022/09/11 09:17:42;;;;;;;5.28;4.72;;;;;;;16.16;63.97;98848.00;1791563;79;21133;-41
2022/09/11 09:20:22;;;;;;;5.00;4.50;;;;;;;16.20;63.08;98852.23;1797115;79;20988;-41
2022/09/11 09:22:54;;;;;;;5.35;4.85;;;;;;;16.26;63.87;98848.47;1797085;79;20892;-41
2022/09/11 09:25:22;;;;;;;4.65;4.25;;;;;;;16.34;63.61;98844.45;1796926;79;20988;-41
2022/09/11 09:27:59;;;;;;;5.55;4.78;;;;;;;16.43;63.21;98836.51;1796993;79;21314;-41
2022/09/11 09:30:26;;;;;;;6.50;4.60;;;;;;;16.56;62.75;98831.25;1796913;79;21130;-41
2022/09/11 09:33:37;;;;;;;4.92;4.53;;;;;;;16.64;61.40;98829.42;1796967;79;20952;-40
2022/09/11 09:36:57;;;;;;;4.67;4.28;;;;;;;16.66;60.65;98828.98;1797063;79;20999;-40
2022/09/11 09:39:24;;;;;;;3.95;3.02;;;;;;;16.65;61.93;98829.61;1796995;79;21002;-40
2022/09/11 09:42:04;;;;;;;4.75;3.80;;;;;;;16.81;61.78;98827.00;1797103;79;21086;-41
2022/09/11 09:45:20;;;;;;;4.30;3.90;;;;;;;16.98;61.27;98835.37;1765669;79;21070;-41
2022/09/11 09:47:47;;;;;;;4.78;4.28;;;;;;;17.08;60.83;98833.08;1796881;79;20907;-41
2022/09/11 09:50:26;;;;;;;8.08;4.90;;;;;;;17.13;61.39;98820.28;1797077;79;20880;-41
2022/09/11 09:52:59;;;;;;;6.17;4.50;;;;;;;17.27;61.56;98821.41;1800832;79;20974;-41
2022/09/11 09:55:26;;;;;;;5.33;4.83;;;;;;;17.41;60.35;98823.91;1802170;79;21066;-40
2022/09/11 09:57:52;;;;;;;5.00;4.58;;;;;;;17.44;59.26;98831.28;1802790;79;21466;-41
2022/09/11 10:00:20;;;;;;;5.30;4.80;;;;;;;17.42;59.71;98826.05;1802354;79;21591;-41
2022/09/11 10:02:57;;;;;;;5.33;4.80;;;;;;;17.37;58.88;98824.56;1803002;79;20951;-40
2022/09/11 10:05:31;;;;;;;4.80;4.40;;;;;;;17.35;59.37;98826.94;1801367;79;20920;-40
2022/09/11 10:08:03;;;;;;;5.30;4.83;;;;;;;17.33;59.44;98821.12;1802789;79;21555;-41
2022/09/11 10:10:37;;;;;;;6.75;5.28;;;;;;;17.34;59.85;98824.02;1802451;79;21194;-41
2022/09/11 10:13:23;;;;;;;5.28;4.75;;;;;;;17.37;59.86;98819.87;1802653;79;20915;-41
2022/09/11 10:15:48;;;;;;;6.03;5.53;;;;;;;17.41;58.53;98828.02;1802421;79;21010;-41
2022/09/11 10:18:36;;;;;;;5.35;4.85;;;;;;;17.35;58.33;98837.90;1802840;79;20959;-41
2022/09/11 10:21:17;;;;;;;5.42;4.92;;;;;;;17.34;58.07;98830.86;1802848;79;20987;-41
2022/09/11 10:23:58;;;;;;;7.22;5.40;;;;;;;17.32;58.65;98837.38;1802411;79;21080;-41
2022/09/11 10:26:32;;;;;;;5.50;5.00;;;;;;;17.39;59.01;98835.87;1802662;79;20923;-41
2022/09/11 10:29:18;;;;;;;6.37;5.40;;;;;;;17.46;59.00;98838.50;1796499;79;20966;-41
2022/09/11 10:31:54;;;;;;;4.20;3.80;;;;;;;17.59;59.81;98833.20;1802800;79;21739;-41
2022/09/11 10:34:25;;;;;;;4.65;4.25;;;;;;;17.74;58.20;98838.61;1802558;79;21505;-41
2022/09/11 10:36:54;;;;;;;5.10;4.10;;;;;;;17.84;57.18;98837.64;1802763;79;21141;-40
2022/09/11 10:39:23;;;;;;;6.35;5.30;;;;;;;17.88;57.10;98833.45;1802428;79;20897;-40
2022/09/11 10:41:53;;;;;;;5.72;5.22;;;;;;;17.97;57.92;98843.27;1802631;79;22073;-41
2022/09/11 10:44:21;;;;;;;5.62;4.70;;;;;;;18.06;57.38;98833.88;1802580;79;21608;-41
2022/09/11 10:47:17;;;;;;;5.42;4.92;;;;;;;18.11;56.56;98835.53;1802670;79;21026;-41
2022/09/11 10:49:45;;;;;;;7.50;5.15;;;;;;;18.14;56.78;98821.59;1802565;79;23204;-41
2022/09/11 10:52:17;;;;;;;5.60;5.00;;;;;;;18.16;56.94;98826.04;1802248;79;21035;-41
2022/09/11 10:55:09;;;;;;;4.70;4.30;;;;;;;18.19;56.95;98815.61;1802367;79;21511;-40
2022/09/11 10:57:46;;;;;;;4.90;4.50;;;;;;;18.23;56.50;98812.19;1802632;79;21533;-41
2022/09/11 11:00:26;;;;;;;5.58;5.08;;;;;;;18.23;57.12;98810.22;1802742;79;21006;-41
2022/09/11 11:03:06;;;;;;;5.35;4.85;;;;;;;18.28;56.92;98808.95;1802993;79;21225;-40
2022/09/11 11:06:18;;;;;;;5.78;5.00;;;;;;;18.32;57.10;98806.89;1795348;79;21509;-41
2022/09/11 11:09:24;;;;;;;5.90;5.40;;;;;;;18.34;56.86;98805.11;1802472;79;21334;-41
2022/09/11 11:12:19;;;;;;;5.50;5.00;;;;;;;18.35;57.41;98804.66;1801962;79;21082;-40
2022/09/11 11:14:55;;;;;;;5.58;5.08;;;;;;;18.33;57.38;98802.96;1790891;79;21063;-41
2022/09/11 11:17:53;;;;;;;5.15;4.70;;;;;;;18.31;57.11;98802.59;1785763;79;21983;-41
2022/09/11 11:20:31;;;;;;;5.67;5.17;;;;;;;18.29;57.03;98798.75;1771189;80;21561;-40
2022/09/11 11:23:13;;;;;;;5.37;4.50;;;;;;;18.25;57.37;98801.55;1783080;79;21041;-41
2022/09/11 11:26:34;;;;;;;4.75;4.35;;;;;;;18.27;57.41;98804.65;1782653;80;21036;-41
2022/09/11 11:29:32;;;;;;;5.10;4.60;;;;;;;18.25;56.77;98805.66;1783177;80;21083;-41
2022/09/11 11:32:38;;;;;;;5.08;4.60;;;;;;;18.24;56.11;98798.66;1783083;79;21147;-41
2022/09/11 11:35:34;;;;;;;4.90;4.50;;;;;;;18.21;56.08;98800.85;1752411;80;20930;-41
2022/09/11 11:38:12;;;;;;;5.08;4.45;;;;;;;18.21;56.74;98798.11;1783418;79;20977;-41
2022/09/11 11:40:48;;;;;;;5.20;4.70;;;;;;;18.23;55.93;98798.47;1782855;80;21021;-41
2022/09/11 11:43:16;;;;;;;4.25;3.85;;;;;;;18.22;56.71;98790.05;1783585;80;21527;-41
2022/09/11 11:45:51;;;;;;;4.47;4.08;;;;;;;18.28;55.99;98797.20;1783726;79;21163;-41
2022/09/11 11:48:40;;;;;;;5.92;4.12;;;;;;;18.31;56.19;98792.22;1783360;80;21000;-41
2022/09/11 11:51:10;;;;;;;5.90;4.60;;;;;;;18.36;55.88;98792.50;1778955;80;20937;-41
2022/09/11 11:53:55;;;;;;;4.97;4.45;;;;;;;18.43;56.67;98790.98;1773007;79;21611;-41
2022/09/11 11:56:48;;;;;;;4.87;4.17;;;;;;;18.51;56.95;98787.47;1772638;81;21009;-41
2022/09/11 11:59:47;;;;;;;5.67;4.20;;;;;;;18.56;56.59;98790.52;1759534;81;21118;-41
2022/09/11 12:02:29;;;;;;;4.40;4.00;;;;;;;18.74;57.19;98783.83;1772617;81;21524;-41
2022/09/11 12:05:19;;;;;;;4.35;4.00;;;;;;;19.00;55.84;98789.69;1772664;79;21843;-41
2022/09/11 12:07:47;;;;;;;4.40;4.00;;;;;;;19.16;54.67;98785.58;1772640;79;21026;-41